sensor_id;sensor_type;location;lat;lon;timestamp;temperature;humidity
15083;DHT22;7640;53.116;6.878;2022-07-01T00:02:10;16.00;99.90
15083;DHT22;7640;53.116;6.878;2022-07-01T00:04:44;16.00;99.90
15083;DHT22;7640;53.116;6.878;2022-07-01T00:07:13;16.00;99.90
15083;DHT22;7640;53.116;6.878;2022-07-01T00:09:44;16.00;99.90
15083;DHT22;7640;53.116;6.878;2022-07-01T00:12:13;16.10;99.90
15083;DHT22;7640;53.116;6.878;2022-07-01T00:14:41;16.10;99.90
15083;DHT22;7640;53.116;6.878;2022-07-01T00:17:09;16.10;99.90
15083;DHT22;7640;53.116;6.878;2022-07-01T00:19:37;16.10;99.90
15083;DHT22;7640;53.116;6.878;2022-07-01T00:22:06;16.10;99.90
15083;DHT22;7640;53.116;6.878;2022-07-01T00:24:35;16.10;99.90
15083;DHT22;7640;53.116;6.878;2022-07-01T00:27:05;16.10;99.90
15083;DHT22;7640;53.116;6.878;2022-07-01T00:29:33;16.20;99.90
15083;DHT22;7640;53.116;6.878;2022-07-01T00:32:03;16.20;99.90
15083;DHT22;7640;53.116;6.878;2022-07-01T00:34:32;16.20;99.90
15083;DHT22;7640;53.116;6.878;2022-07-01T00:37:00;16.20;99.90
15083;DHT22;7640;53.116;6.878;2022-07-01T00:39:28;16.40;99.90
15083;DHT22;7640;53.116;6.878;2022-07-01T00:41:58;16.10;99.90
15083;DHT22;7640;53.116;6.878;2022-07-01T00:44:29;16.30;99.90
15083;DHT22;7640;53.116;6.878;2022-07-01T00:47:01;16.00;99.90
15083;DHT22;7640;53.116;6.878;2022-07-01T00:49:31;16.00;99.90
15083;DHT22;7640;53.116;6.878;2022-07-01T00:52:00;16.00;99.90
15083;DHT22;7640;53.116;6.878;2022-07-01T00:54:30;16.00;99.90
15083;DHT22;7640;53.116;6.878;2022-07-01T00:56:59;16.00;99.90
15083;DHT22;7640;53.116;6.878;2022-07-01T00:59:28;16.00;99.90
15083;DHT22;7640;53.116;6.878;2022-07-01T01:01:58;16.00;99.90
15083;DHT22;7640;53.116;6.878;2022-07-01T01:04:26;16.10;99.90
15083;DHT22;7640;53.116;6.878;2022-07-01T01:06:55;16.10;99.90
15083;DHT22;7640;53.116;6.878;2022-07-01T01:09:23;16.10;99.90
15083;DHT22;7640;53.116;6.878;2022-07-01T01:11:52;16.10;99.90
15083;DHT22;7640;53.116;6.878;2022-07-01T01:14:20;16.20;99.90
15083;DHT22;7640;53.116;6.878;2022-07-01T01:16:50;16.20;99.90
15083;DHT22;7640;53.116;6.878;2022-07-01T01:19:19;16.20;99.90
15083;DHT22;7640;53.116;6.878;2022-07-01T01:21:49;16.20;99.90
15083;DHT22;7640;53.116;6.878;2022-07-01T01:24:17;16.20;99.90
15083;DHT22;7640;53.116;6.878;2022-07-01T01:26:46;16.20;99.90
15083;DHT22;7640;53.116;6.878;2022-07-01T01:29:14;16.10;99.90
15083;DHT22;7640;53.116;6.878;2022-07-01T01:31:43;16.10;99.90
15083;DHT22;7640;53.116;6.878;2022-07-01T01:34:12;16.20;99.90
15083;DHT22;7640;53.116;6.878;2022-07-01T01:36:40;16.10;99.90
15083;DHT22;7640;53.116;6.878;2022-07-01T01:39:10;16.10;99.90
15083;DHT22;7640;53.116;6.878;2022-07-01T01:41:39;16.10;99.90
15083;DHT22;7640;53.116;6.878;2022-07-01T01:44:07;16.10;99.90
15083;DHT22;7640;53.116;6.878;2022-07-01T01:46:36;16.20;99.90
15083;DHT22;7640;53.116;6.878;2022-07-01T01:49:05;16.20;99.90
15083;DHT22;7640;53.116;6.878;2022-07-01T01:51:34;16.20;99.90
15083;DHT22;7640;53.116;6.878;2022-07-01T01:54:03;16.30;99.90
15083;DHT22;7640;53.116;6.878;2022-07-01T01:56:32;16.30;99.90
15083;DHT22;7640;53.116;6.878;2022-07-01T01:59:01;16.40;99.90
15083;DHT22;7640;53.116;6.878;2022-07-01T02:01:31;16.40;99.90
15083;DHT22;7640;53.116;6.878;2022-07-01T02:03:59;16.40;99.90
15083;DHT22;7640;53.116;6.878;2022-07-01T02:06:28;16.40;99.90
15083;DHT22;7640;53.116;6.878;2022-07-01T02:08:56;16.50;99.90
15083;DHT22;7640;53.116;6.878;2022-07-01T02:11:24;16.50;99.90
15083;DHT22;7640;53.116;6.878;2022-07-01T02:13:54;16.50;99.90
15083;DHT22;7640;53.116;6.878;2022-07-01T02:16:22;16.50;99.90
15083;DHT22;7640;53.116;6.878;2022-07-01T02:18:50;16.50;99.90
15083;DHT22;7640;53.116;6.878;2022-07-01T02:21:19;16.50;99.90
15083;DHT22;7640;53.116;6.878;2022-07-01T02:23:47;16.50;99.90
15083;DHT22;7640;53.116;6.878;2022-07-01T02:26:15;16.50;99.90
15083;DHT22;7640;53.116;6.878;2022-07-01T02:28:43;16.50;99.90
15083;DHT22;7640;53.116;6.878;2022-07-01T02:31:13;16.50;99.90
15083;DHT22;7640;53.116;6.878;2022-07-01T02:33:42;16.50;99.90
15083;DHT22;7640;53.116;6.878;2022-07-01T02:36:10;16.50;99.90
15083;DHT22;7640;53.116;6.878;2022-07-01T02:38:38;16.40;99.90
15083;DHT22;7640;53.116;6.878;2022-07-01T02:41:06;16.40;99.90
15083;DHT22;7640;53.116;6.878;2022-07-01T02:43:36;16.30;99.90
15083;DHT22;7640;53.116;6.878;2022-07-01T02:46:05;16.40;99.90
15083;DHT22;7640;53.116;6.878;2022-07-01T02:48:34;16.40;99.90
15083;DHT22;7640;53.116;6.878;2022-07-01T02:51:03;16.30;99.90
15083;DHT22;7640;53.116;6.878;2022-07-01T02:53:31;16.30;99.90
15083;DHT22;7640;53.116;6.878;2022-07-01T02:56:00;16.30;99.90
15083;DHT22;7640;53.116;6.878;2022-07-01T02:58:28;16.30;99.90
15083;DHT22;7640;53.116;6.878;2022-07-01T03:00:56;16.30;99.90
15083;DHT22;7640;53.116;6.878;2022-07-01T03:03:25;16.30;99.90
15083;DHT22;7640;53.116;6.878;2022-07-01T03:05:54;16.20;99.90
15083;DHT22;7640;53.116;6.878;2022-07-01T03:08:23;16.30;99.90
15083;DHT22;7640;53.116;6.878;2022-07-01T03:10:51;16.20;99.90
15083;DHT22;7640;53.116;6.878;2022-07-01T03:13:19;16.10;99.90
15083;DHT22;7640;53.116;6.878;2022-07-01T03:15:47;16.10;99.90
15083;DHT22;7640;53.116;6.878;2022-07-01T03:18:15;16.10;99.90
15083;DHT22;7640;53.116;6.878;2022-07-01T03:20:44;16.00;99.90
15083;DHT22;7640;53.116;6.878;2022-07-01T03:23:14;16.10;99.90
15083;DHT22;7640;53.116;6.878;2022-07-01T03:25:42;16.00;99.90
15083;DHT22;7640;53.116;6.878;2022-07-01T03:28:10;16.00;99.90
15083;DHT22;7640;53.116;6.878;2022-07-01T03:30:38;15.90;99.90
15083;DHT22;7640;53.116;6.878;2022-07-01T03:33:07;15.90;99.90
15083;DHT22;7640;53.116;6.878;2022-07-01T03:35:35;16.00;99.90
15083;DHT22;7640;53.116;6.878;2022-07-01T03:38:03;16.00;99.90
15083;DHT22;7640;53.116;6.878;2022-07-01T03:40:33;15.90;99.90
15083;DHT22;7640;53.116;6.878;2022-07-01T03:43:01;15.90;99.90
15083;DHT22;7640;53.116;6.878;2022-07-01T03:45:30;15.90;99.90
15083;DHT22;7640;53.116;6.878;2022-07-01T03:47:58;15.90;99.90
15083;DHT22;7640;53.116;6.878;2022-07-01T03:50:27;16.00;99.90
15083;DHT22;7640;53.116;6.878;2022-07-01T03:52:55;15.90;99.90
15083;DHT22;7640;53.116;6.878;2022-07-01T03:55:43;16.10;99.90
15083;DHT22;7640;53.116;6.878;2022-07-01T03:58:12;15.90;99.90
15083;DHT22;7640;53.116;6.878;2022-07-01T04:00:41;16.00;99.90
15083;DHT22;7640;53.116;6.878;2022-07-01T04:03:09;16.00;99.90
15083;DHT22;7640;53.116;6.878;2022-07-01T04:05:38;16.10;99.90
15083;DHT22;7640;53.116;6.878;2022-07-01T04:08:08;16.10;99.90
15083;DHT22;7640;53.116;6.878;2022-07-01T04:10:39;16.10;99.90
15083;DHT22;7640;53.116;6.878;2022-07-01T04:13:10;16.20;99.90
15083;DHT22;7640;53.116;6.878;2022-07-01T04:15:58;16.10;99.90
15083;DHT22;7640;53.116;6.878;2022-07-01T04:18:28;16.30;99.90
15083;DHT22;7640;53.116;6.878;2022-07-01T04:20:57;16.30;99.90
15083;DHT22;7640;53.116;6.878;2022-07-01T04:23:43;16.30;99.90
15083;DHT22;7640;53.116;6.878;2022-07-01T04:26:11;16.30;99.90
15083;DHT22;7640;53.116;6.878;2022-07-01T04:29:01;16.30;99.90
15083;DHT22;7640;53.116;6.878;2022-07-01T04:31:29;16.30;99.90
15083;DHT22;7640;53.116;6.878;2022-07-01T04:33:58;16.30;99.90
15083;DHT22;7640;53.116;6.878;2022-07-01T04:36:26;16.30;99.90
15083;DHT22;7640;53.116;6.878;2022-07-01T04:38:54;16.30;99.90
15083;DHT22;7640;53.116;6.878;2022-07-01T04:41:22;16.30;99.90
15083;DHT22;7640;53.116;6.878;2022-07-01T04:44:10;16.30;99.90
15083;DHT22;7640;53.116;6.878;2022-07-01T04:46:39;16.30;99.90
15083;DHT22;7640;53.116;6.878;2022-07-01T04:49:07;16.30;99.90
15083;DHT22;7640;53.116;6.878;2022-07-01T04:51:36;16.30;99.90
15083;DHT22;7640;53.116;6.878;2022-07-01T04:54:06;16.30;99.90
15083;DHT22;7640;53.116;6.878;2022-07-01T04:56:36;16.40;99.90
15083;DHT22;7640;53.116;6.878;2022-07-01T04:59:12;16.40;99.90
15083;DHT22;7640;53.116;6.878;2022-07-01T05:01:44;16.50;99.90
15083;DHT22;7640;53.116;6.878;2022-07-01T05:04:16;16.50;99.90
15083;DHT22;7640;53.116;6.878;2022-07-01T05:06:45;16.40;99.90
15083;DHT22;7640;53.116;6.878;2022-07-01T05:09:13;16.50;99.90
15083;DHT22;7640;53.116;6.878;2022-07-01T05:11:41;16.50;99.90
15083;DHT22;7640;53.116;6.878;2022-07-01T05:14:11;16.50;99.90
15083;DHT22;7640;53.116;6.878;2022-07-01T05:16:39;16.80;99.90
15083;DHT22;7640;53.116;6.878;2022-07-01T05:19:07;16.60;99.90
15083;DHT22;7640;53.116;6.878;2022-07-01T05:21:53;16.50;99.90
15083;DHT22;7640;53.116;6.878;2022-07-01T05:24:30;16.60;99.90
15083;DHT22;7640;53.116;6.878;2022-07-01T05:27:00;16.60;99.90
15083;DHT22;7640;53.116;6.878;2022-07-01T05:29:30;16.60;99.90
15083;DHT22;7640;53.116;6.878;2022-07-01T05:31:58;16.60;99.90
15083;DHT22;7640;53.116;6.878;2022-07-01T05:34:26;16.70;99.90
15083;DHT22;7640;53.116;6.878;2022-07-01T05:36:55;16.70;99.90
15083;DHT22;7640;53.116;6.878;2022-07-01T05:39:23;16.70;99.90
15083;DHT22;7640;53.116;6.878;2022-07-01T05:41:52;16.70;99.90
15083;DHT22;7640;53.116;6.878;2022-07-01T05:44:20;16.70;99.90
15083;DHT22;7640;53.116;6.878;2022-07-01T05:46:51;16.80;99.90
15083;DHT22;7640;53.116;6.878;2022-07-01T05:49:19;16.80;99.90
15083;DHT22;7640;53.116;6.878;2022-07-01T05:51:49;16.90;99.90
15083;DHT22;7640;53.116;6.878;2022-07-01T05:54:17;16.90;99.90
15083;DHT22;7640;53.116;6.878;2022-07-01T05:56:46;16.90;99.90
15083;DHT22;7640;53.116;6.878;2022-07-01T05:59:14;16.90;99.90
15083;DHT22;7640;53.116;6.878;2022-07-01T06:01:42;17.00;99.90
15083;DHT22;7640;53.116;6.878;2022-07-01T06:04:14;17.00;99.90
15083;DHT22;7640;53.116;6.878;2022-07-01T06:06:42;17.10;99.90
15083;DHT22;7640;53.116;6.878;2022-07-01T06:09:10;17.10;99.90
15083;DHT22;7640;53.116;6.878;2022-07-01T06:11:38;17.10;99.90
15083;DHT22;7640;53.116;6.878;2022-07-01T06:14:07;17.20;99.90
15083;DHT22;7640;53.116;6.878;2022-07-01T06:16:35;17.10;99.90
15083;DHT22;7640;53.116;6.878;2022-07-01T06:19:04;17.20;99.90
15083;DHT22;7640;53.116;6.878;2022-07-01T06:21:34;17.20;99.90
15083;DHT22;7640;53.116;6.878;2022-07-01T06:24:02;17.20;99.90
15083;DHT22;7640;53.116;6.878;2022-07-01T06:26:31;17.30;99.90
15083;DHT22;7640;53.116;6.878;2022-07-01T06:28:59;17.40;99.90
15083;DHT22;7640;53.116;6.878;2022-07-01T06:31:27;17.40;99.90
15083;DHT22;7640;53.116;6.878;2022-07-01T06:33:56;17.50;99.90
15083;DHT22;7640;53.116;6.878;2022-07-01T06:36:24;17.50;99.90
15083;DHT22;7640;53.116;6.878;2022-07-01T06:38:54;17.50;99.90
15083;DHT22;7640;53.116;6.878;2022-07-01T06:41:22;17.50;99.90
15083;DHT22;7640;53.116;6.878;2022-07-01T06:43:58;17.50;99.90
15083;DHT22;7640;53.116;6.878;2022-07-01T06:46:31;17.60;99.90
15083;DHT22;7640;53.116;6.878;2022-07-01T06:49:00;17.50;99.90
15083;DHT22;7640;53.116;6.878;2022-07-01T06:51:28;17.60;99.90
15083;DHT22;7640;53.116;6.878;2022-07-01T06:53:58;17.70;99.90
15083;DHT22;7640;53.116;6.878;2022-07-01T06:56:26;17.70;99.90
15083;DHT22;7640;53.116;6.878;2022-07-01T06:58:54;17.80;99.90
15083;DHT22;7640;53.116;6.878;2022-07-01T07:01:23;17.90;99.90
15083;DHT22;7640;53.116;6.878;2022-07-01T07:03:51;18.00;99.90
15083;DHT22;7640;53.116;6.878;2022-07-01T07:06:20;18.10;99.90
15083;DHT22;7640;53.116;6.878;2022-07-01T07:08:49;18.20;99.90
15083;DHT22;7640;53.116;6.878;2022-07-01T07:11:18;18.30;99.90
15083;DHT22;7640;53.116;6.878;2022-07-01T07:13:46;18.40;99.90
15083;DHT22;7640;53.116;6.878;2022-07-01T07:16:15;18.50;99.90
15083;DHT22;7640;53.116;6.878;2022-07-01T07:18:48;18.50;99.90
15083;DHT22;7640;53.116;6.878;2022-07-01T07:21:16;18.60;99.90
15083;DHT22;7640;53.116;6.878;2022-07-01T07:23:45;18.60;99.90
15083;DHT22;7640;53.116;6.878;2022-07-01T07:26:13;18.60;99.90
15083;DHT22;7640;53.116;6.878;2022-07-01T07:28:43;18.50;99.90
15083;DHT22;7640;53.116;6.878;2022-07-01T07:31:12;18.50;99.90
15083;DHT22;7640;53.116;6.878;2022-07-01T07:33:40;18.60;99.90
15083;DHT22;7640;53.116;6.878;2022-07-01T07:36:08;18.60;99.90
15083;DHT22;7640;53.116;6.878;2022-07-01T07:38:39;18.60;99.90
15083;DHT22;7640;53.116;6.878;2022-07-01T07:41:08;18.60;99.90
15083;DHT22;7640;53.116;6.878;2022-07-01T07:43:36;18.60;99.90
15083;DHT22;7640;53.116;6.878;2022-07-01T07:46:05;18.60;99.90
15083;DHT22;7640;53.116;6.878;2022-07-01T07:48:34;18.90;99.90
15083;DHT22;7640;53.116;6.878;2022-07-01T07:51:02;18.70;99.90
15083;DHT22;7640;53.116;6.878;2022-07-01T07:53:30;18.70;99.90
15083;DHT22;7640;53.116;6.878;2022-07-01T07:55:59;18.70;99.90
15083;DHT22;7640;53.116;6.878;2022-07-01T07:58:27;18.80;99.90
15083;DHT22;7640;53.116;6.878;2022-07-01T08:00:55;18.80;99.90
15083;DHT22;7640;53.116;6.878;2022-07-01T08:03:25;18.70;99.90
15083;DHT22;7640;53.116;6.878;2022-07-01T08:05:53;18.80;99.90
15083;DHT22;7640;53.116;6.878;2022-07-01T08:08:22;18.80;99.90
15083;DHT22;7640;53.116;6.878;2022-07-01T08:10:50;18.80;99.90
15083;DHT22;7640;53.116;6.878;2022-07-01T08:13:19;18.80;99.90
15083;DHT22;7640;53.116;6.878;2022-07-01T08:15:47;18.80;99.90
15083;DHT22;7640;53.116;6.878;2022-07-01T08:18:15;18.80;99.90
15083;DHT22;7640;53.116;6.878;2022-07-01T08:20:45;18.80;99.90
15083;DHT22;7640;53.116;6.878;2022-07-01T08:23:13;18.80;99.90
15083;DHT22;7640;53.116;6.878;2022-07-01T08:25:42;18.90;99.90
15083;DHT22;7640;53.116;6.878;2022-07-01T08:28:10;19.00;99.90
15083;DHT22;7640;53.116;6.878;2022-07-01T08:30:38;19.00;99.90
15083;DHT22;7640;53.116;6.878;2022-07-01T08:33:07;19.10;99.90
15083;DHT22;7640;53.116;6.878;2022-07-01T08:35:35;19.10;99.90
15083;DHT22;7640;53.116;6.878;2022-07-01T08:38:05;19.20;99.90
15083;DHT22;7640;53.116;6.878;2022-07-01T08:40:34;19.30;99.90
15083;DHT22;7640;53.116;6.878;2022-07-01T08:43:05;19.30;99.90
15083;DHT22;7640;53.116;6.878;2022-07-01T08:45:35;19.40;99.90
15083;DHT22;7640;53.116;6.878;2022-07-01T08:48:05;19.30;99.90
15083;DHT22;7640;53.116;6.878;2022-07-01T08:50:35;19.40;99.90
15083;DHT22;7640;53.116;6.878;2022-07-01T08:53:08;19.40;99.90
15083;DHT22;7640;53.116;6.878;2022-07-01T08:55:38;19.50;99.90
15083;DHT22;7640;53.116;6.878;2022-07-01T08:58:20;19.50;99.90
15083;DHT22;7640;53.116;6.878;2022-07-01T09:00:49;19.50;99.90
15083;DHT22;7640;53.116;6.878;2022-07-01T09:03:23;19.70;99.90
15083;DHT22;7640;53.116;6.878;2022-07-01T09:05:52;19.80;99.90
15083;DHT22;7640;53.116;6.878;2022-07-01T09:08:27;20.00;99.90
15083;DHT22;7640;53.116;6.878;2022-07-01T09:10:55;20.10;99.90
15083;DHT22;7640;53.116;6.878;2022-07-01T09:13:23;20.30;99.90
15083;DHT22;7640;53.116;6.878;2022-07-01T09:15:56;20.40;99.90
15083;DHT22;7640;53.116;6.878;2022-07-01T09:18:24;20.40;99.90
15083;DHT22;7640;53.116;6.878;2022-07-01T09:20:52;20.40;99.90
15083;DHT22;7640;53.116;6.878;2022-07-01T09:23:22;20.50;99.90
15083;DHT22;7640;53.116;6.878;2022-07-01T09:25:51;20.70;99.90
15083;DHT22;7640;53.116;6.878;2022-07-01T09:28:23;20.80;99.90
15083;DHT22;7640;53.116;6.878;2022-07-01T09:30:54;20.80;99.90
15083;DHT22;7640;53.116;6.878;2022-07-01T09:33:25;20.80;99.90
15083;DHT22;7640;53.116;6.878;2022-07-01T09:35:55;20.90;99.90
15083;DHT22;7640;53.116;6.878;2022-07-01T09:38:26;21.00;99.90
15083;DHT22;7640;53.116;6.878;2022-07-01T09:41:00;21.20;99.90
15083;DHT22;7640;53.116;6.878;2022-07-01T09:43:30;21.20;99.90
15083;DHT22;7640;53.116;6.878;2022-07-01T09:46:02;21.30;99.90
15083;DHT22;7640;53.116;6.878;2022-07-01T09:48:45;21.50;99.90
15083;DHT22;7640;53.116;6.878;2022-07-01T09:51:15;21.70;99.90
15083;DHT22;7640;53.116;6.878;2022-07-01T09:53:48;21.80;99.90
15083;DHT22;7640;53.116;6.878;2022-07-01T09:56:16;21.90;99.90
15083;DHT22;7640;53.116;6.878;2022-07-01T09:58:45;21.90;99.90
15083;DHT22;7640;53.116;6.878;2022-07-01T10:01:14;21.90;99.90
15083;DHT22;7640;53.116;6.878;2022-07-01T10:03:43;22.00;99.90
15083;DHT22;7640;53.116;6.878;2022-07-01T10:09:26;22.00;99.90
15083;DHT22;7640;53.116;6.878;2022-07-01T10:12:28;22.00;99.90
15083;DHT22;7640;53.116;6.878;2022-07-01T10:15:00;22.00;99.90
15083;DHT22;7640;53.116;6.878;2022-07-01T10:17:31;22.00;99.90
15083;DHT22;7640;53.116;6.878;2022-07-01T10:20:11;22.00;99.90
15083;DHT22;7640;53.116;6.878;2022-07-01T10:22:48;22.10;99.90
15083;DHT22;7640;53.116;6.878;2022-07-01T10:25:42;22.10;99.90
15083;DHT22;7640;53.116;6.878;2022-07-01T10:28:25;22.20;99.90
15083;DHT22;7640;53.116;6.878;2022-07-01T10:30:57;22.20;99.90
15083;DHT22;7640;53.116;6.878;2022-07-01T10:33:46;22.10;99.90
15083;DHT22;7640;53.116;6.878;2022-07-01T10:36:19;22.10;99.90
15083;DHT22;7640;53.116;6.878;2022-07-01T10:39:10;22.10;99.90
15083;DHT22;7640;53.116;6.878;2022-07-01T10:41:56;22.20;99.90
15083;DHT22;7640;53.116;6.878;2022-07-01T10:45:17;22.30;99.90
15083;DHT22;7640;53.116;6.878;2022-07-01T10:47:45;22.40;99.90
15083;DHT22;7640;53.116;6.878;2022-07-01T10:50:14;22.40;99.90
15083;DHT22;7640;53.116;6.878;2022-07-01T10:53:00;22.50;99.90
15083;DHT22;7640;53.116;6.878;2022-07-01T10:55:36;22.60;99.90
15083;DHT22;7640;53.116;6.878;2022-07-01T10:58:06;22.80;99.90
15083;DHT22;7640;53.116;6.878;2022-07-01T11:00:35;22.80;99.90
15083;DHT22;7640;53.116;6.878;2022-07-01T11:03:19;22.90;99.90
15083;DHT22;7640;53.116;6.878;2022-07-01T11:05:54;22.90;99.90
15083;DHT22;7640;53.116;6.878;2022-07-01T11:08:23;23.00;99.90
15083;DHT22;7640;53.116;6.878;2022-07-01T11:10:58;23.00;99.90
15083;DHT22;7640;53.116;6.878;2022-07-01T11:13:30;23.00;99.90
15083;DHT22;7640;53.116;6.878;2022-07-01T11:16:00;22.90;99.90
15083;DHT22;7640;53.116;6.878;2022-07-01T11:18:30;23.00;99.90
15083;DHT22;7640;53.116;6.878;2022-07-01T11:21:06;23.20;99.90
15083;DHT22;7640;53.116;6.878;2022-07-01T11:23:36;23.30;99.90
15083;DHT22;7640;53.116;6.878;2022-07-01T11:26:19;23.40;99.90
15083;DHT22;7640;53.116;6.878;2022-07-01T11:28:49;23.60;99.90
15083;DHT22;7640;53.116;6.878;2022-07-01T11:31:29;23.60;99.90
15083;DHT22;7640;53.116;6.878;2022-07-01T11:33:58;23.50;99.90
15083;DHT22;7640;53.116;6.878;2022-07-01T11:36:27;23.60;99.90
15083;DHT22;7640;53.116;6.878;2022-07-01T11:39:13;23.80;99.90
15083;DHT22;7640;53.116;6.878;2022-07-01T11:41:55;23.80;99.90
15083;DHT22;7640;53.116;6.878;2022-07-01T11:44:30;23.80;99.90
15083;DHT22;7640;53.116;6.878;2022-07-01T11:46:59;23.80;99.90
15083;DHT22;7640;53.116;6.878;2022-07-01T11:49:29;23.90;99.90
15083;DHT22;7640;53.116;6.878;2022-07-01T11:51:58;23.90;99.90
15083;DHT22;7640;53.116;6.878;2022-07-01T11:54:29;24.20;99.90
15083;DHT22;7640;53.116;6.878;2022-07-01T11:57:08;24.50;99.90
15083;DHT22;7640;53.116;6.878;2022-07-01T11:59:38;24.70;99.90
15083;DHT22;7640;53.116;6.878;2022-07-01T12:02:10;24.90;99.90
15083;DHT22;7640;53.116;6.878;2022-07-01T12:04:41;25.00;99.90
15083;DHT22;7640;53.116;6.878;2022-07-01T12:07:11;24.90;99.90
15083;DHT22;7640;53.116;6.878;2022-07-01T12:09:40;24.70;99.90
15083;DHT22;7640;53.116;6.878;2022-07-01T12:12:15;24.40;99.90
15083;DHT22;7640;53.116;6.878;2022-07-01T12:14:52;24.10;99.90
15083;DHT22;7640;53.116;6.878;2022-07-01T12:17:22;23.80;99.90
15083;DHT22;7640;53.116;6.878;2022-07-01T12:19:51;23.50;99.90
15083;DHT22;7640;53.116;6.878;2022-07-01T12:22:22;23.10;99.90
15083;DHT22;7640;53.116;6.878;2022-07-01T12:24:52;22.90;99.90
15083;DHT22;7640;53.116;6.878;2022-07-01T12:27:33;22.70;99.90
15083;DHT22;7640;53.116;6.878;2022-07-01T12:30:04;22.50;99.90
15083;DHT22;7640;53.116;6.878;2022-07-01T12:32:36;22.50;99.90
15083;DHT22;7640;53.116;6.878;2022-07-01T12:35:06;22.40;99.90
15083;DHT22;7640;53.116;6.878;2022-07-01T12:37:56;22.40;99.90
15083;DHT22;7640;53.116;6.878;2022-07-01T12:40:25;22.30;99.90
15083;DHT22;7640;53.116;6.878;2022-07-01T12:42:55;22.40;99.90
15083;DHT22;7640;53.116;6.878;2022-07-01T12:45:27;22.40;99.90
15083;DHT22;7640;53.116;6.878;2022-07-01T12:47:57;22.70;99.90
15083;DHT22;7640;53.116;6.878;2022-07-01T12:50:27;23.30;99.90
15083;DHT22;7640;53.116;6.878;2022-07-01T12:52:59;23.70;99.90
15083;DHT22;7640;53.116;6.878;2022-07-01T12:55:31;23.60;99.90
15083;DHT22;7640;53.116;6.878;2022-07-01T12:58:02;23.40;99.90
15083;DHT22;7640;53.116;6.878;2022-07-01T13:00:33;23.30;99.90
15083;DHT22;7640;53.116;6.878;2022-07-01T13:03:02;23.30;99.90
15083;DHT22;7640;53.116;6.878;2022-07-01T13:05:32;23.70;99.90
15083;DHT22;7640;53.116;6.878;2022-07-01T13:08:02;24.30;99.90
15083;DHT22;7640;53.116;6.878;2022-07-01T13:10:30;25.00;99.90
15083;DHT22;7640;53.116;6.878;2022-07-01T13:12:58;25.40;99.90
15083;DHT22;7640;53.116;6.878;2022-07-01T13:15:27;25.50;99.90
15083;DHT22;7640;53.116;6.878;2022-07-01T13:17:57;25.60;99.90
15083;DHT22;7640;53.116;6.878;2022-07-01T13:20:25;25.70;99.90
15083;DHT22;7640;53.116;6.878;2022-07-01T13:22:54;25.80;99.90
15083;DHT22;7640;53.116;6.878;2022-07-01T13:25:22;26.10;99.90
15083;DHT22;7640;53.116;6.878;2022-07-01T13:27:50;26.20;99.90
15083;DHT22;7640;53.116;6.878;2022-07-01T13:30:19;26.10;99.90
15083;DHT22;7640;53.116;6.878;2022-07-01T13:32:48;25.90;99.90
15083;DHT22;7640;53.116;6.878;2022-07-01T13:35:21;25.50;99.90
15083;DHT22;7640;53.116;6.878;2022-07-01T13:37:50;25.30;99.90
15083;DHT22;7640;53.116;6.878;2022-07-01T13:40:19;25.30;99.90
15083;DHT22;7640;53.116;6.878;2022-07-01T13:42:48;25.50;99.90
15083;DHT22;7640;53.116;6.878;2022-07-01T13:45:16;25.60;98.90
15083;DHT22;7640;53.116;6.878;2022-07-01T13:47:45;25.60;98.90
15083;DHT22;7640;53.116;6.878;2022-07-01T13:50:13;25.60;98.60
15083;DHT22;7640;53.116;6.878;2022-07-01T13:52:47;25.50;98.90
15083;DHT22;7640;53.116;6.878;2022-07-01T13:55:16;25.50;98.90
15083;DHT22;7640;53.116;6.878;2022-07-01T13:57:45;25.90;98.90
15083;DHT22;7640;53.116;6.878;2022-07-01T14:00:14;26.30;97.50
15083;DHT22;7640;53.116;6.878;2022-07-01T14:02:43;26.50;97.50
15083;DHT22;7640;53.116;6.878;2022-07-01T14:05:11;26.80;96.70
15083;DHT22;7640;53.116;6.878;2022-07-01T14:07:39;27.10;95.60
15083;DHT22;7640;53.116;6.878;2022-07-01T14:10:09;27.30;94.70
15083;DHT22;7640;53.116;6.878;2022-07-01T14:12:38;27.20;94.70
15083;DHT22;7640;53.116;6.878;2022-07-01T14:15:07;27.10;95.20
15083;DHT22;7640;53.116;6.878;2022-07-01T14:17:35;26.80;95.00
15083;DHT22;7640;53.116;6.878;2022-07-01T14:20:06;26.60;95.50
15083;DHT22;7640;53.116;6.878;2022-07-01T14:22:36;26.50;95.90
15083;DHT22;7640;53.116;6.878;2022-07-01T14:25:05;26.50;95.60
15083;DHT22;7640;53.116;6.878;2022-07-01T14:27:35;26.50;95.60
15083;DHT22;7640;53.116;6.878;2022-07-01T14:30:05;26.30;95.70
15083;DHT22;7640;53.116;6.878;2022-07-01T14:32:34;25.80;95.70
15083;DHT22;7640;53.116;6.878;2022-07-01T14:35:03;25.30;96.10
15083;DHT22;7640;53.116;6.878;2022-07-01T14:37:31;24.90;96.90
15083;DHT22;7640;53.116;6.878;2022-07-01T14:40:00;24.60;97.50
15083;DHT22;7640;53.116;6.878;2022-07-01T14:42:28;24.60;98.30
15083;DHT22;7640;53.116;6.878;2022-07-01T14:44:58;24.80;97.80
15083;DHT22;7640;53.116;6.878;2022-07-01T14:47:26;24.80;96.80
15083;DHT22;7640;53.116;6.878;2022-07-01T14:49:54;24.60;97.10
15083;DHT22;7640;53.116;6.878;2022-07-01T14:52:23;24.50;97.80
15083;DHT22;7640;53.116;6.878;2022-07-01T14:54:52;24.50;98.90
15083;DHT22;7640;53.116;6.878;2022-07-01T14:57:20;24.50;98.80
15083;DHT22;7640;53.116;6.878;2022-07-01T14:59:48;24.50;98.80
15083;DHT22;7640;53.116;6.878;2022-07-01T15:02:18;24.60;98.70
15083;DHT22;7640;53.116;6.878;2022-07-01T15:04:47;25.00;98.20
15083;DHT22;7640;53.116;6.878;2022-07-01T15:07:15;25.50;97.40
15083;DHT22;7640;53.116;6.878;2022-07-01T15:09:44;25.60;97.20
15083;DHT22;7640;53.116;6.878;2022-07-01T15:12:12;25.60;96.80
15083;DHT22;7640;53.116;6.878;2022-07-01T15:14:41;25.40;96.80
15083;DHT22;7640;53.116;6.878;2022-07-01T15:17:09;25.20;97.10
15083;DHT22;7640;53.116;6.878;2022-07-01T15:19:39;25.10;97.80
15083;DHT22;7640;53.116;6.878;2022-07-01T15:22:08;25.30;97.70
15083;DHT22;7640;53.116;6.878;2022-07-01T15:24:37;25.60;97.50
15083;DHT22;7640;53.116;6.878;2022-07-01T15:27:07;25.80;97.70
15083;DHT22;7640;53.116;6.878;2022-07-01T15:29:36;26.50;97.00
15083;DHT22;7640;53.116;6.878;2022-07-01T15:32:05;27.10;96.20
15083;DHT22;7640;53.116;6.878;2022-07-01T15:34:34;27.60;94.90
15083;DHT22;7640;53.116;6.878;2022-07-01T15:37:04;27.90;93.60
15083;DHT22;7640;53.116;6.878;2022-07-01T15:39:33;28.20;93.50
15083;DHT22;7640;53.116;6.878;2022-07-01T15:42:01;28.60;93.10
15083;DHT22;7640;53.116;6.878;2022-07-01T15:44:30;29.00;92.40
15083;DHT22;7640;53.116;6.878;2022-07-01T15:46:59;29.40;91.60
15083;DHT22;7640;53.116;6.878;2022-07-01T15:49:49;29.30;90.80
15083;DHT22;7640;53.116;6.878;2022-07-01T15:52:18;28.90;91.20
15083;DHT22;7640;53.116;6.878;2022-07-01T15:54:46;29.00;91.70
15083;DHT22;7640;53.116;6.878;2022-07-01T15:57:14;29.40;91.70
15083;DHT22;7640;53.116;6.878;2022-07-01T15:59:43;30.00;90.90
15083;DHT22;7640;53.116;6.878;2022-07-01T16:02:12;30.50;89.10
15083;DHT22;7640;53.116;6.878;2022-07-01T16:04:44;30.40;87.70
15083;DHT22;7640;53.116;6.878;2022-07-01T16:07:19;30.30;88.10
15083;DHT22;7640;53.116;6.878;2022-07-01T16:09:51;30.30;87.20